Time;durP1;ratioP1;P1;durP2;ratioP2;P2;SDS_P1;SDS_P2;PMS_P1;PMS_P2;Temp;Humidity;BMP_temperature;BMP_pressure;BME280_temperature;BME280_humidity;BME280_pressure;Samples;Min_cycle;Max_cycle;Signal;HPM_P1;HPM_P2
2023/10/18 00:01:05;;;;;;;;;;;5.00;99.90;;;3.80;100.00;97328.19;5042143;28;1586;-74
2023/10/18 00:03:32;;;;;;;;;;;5.00;99.90;;;3.84;100.00;97327.25;5044778;28;1665;-73
2023/10/18 00:06:11;;;;;;;;;;;5.00;99.90;;;3.75;100.00;97323.97;5031693;28;1614;-74
2023/10/18 00:08:39;;;;;;;;;;;5.10;99.90;;;3.93;100.00;97322.78;5014672;28;1586;-73
2023/10/18 00:11:06;;;;;;;;;;;5.10;99.90;;;3.93;100.00;97316.78;5042219;28;1816;-74
2023/10/18 00:13:33;;;;;;;;;;;5.10;99.90;;;3.92;100.00;97313.38;5031088;28;1590;-74
2023/10/18 00:16:02;;;;;;;;;;;5.20;99.90;;;3.78;100.00;97308.50;5029609;28;1601;-75
2023/10/18 00:18:29;;;;;;;;;;;5.10;99.90;;;3.81;100.00;97311.88;5042240;28;1899;-74
2023/10/18 00:21:00;;;;;;;;;;;5.10;99.90;;;3.97;100.00;97311.56;5028948;28;1520;-74
2023/10/18 00:23:30;;;;;;;;;;;5.10;99.90;;;4.00;100.00;97305.53;5034017;28;1644;-74
2023/10/18 00:26:01;;;;;;;;;;;5.20;99.90;;;3.95;100.00;97297.91;5042445;28;1519;-73
2023/10/18 00:28:28;;;;;;;;;;;5.20;99.90;;;3.98;100.00;97297.00;5036225;28;1538;-74
2023/10/18 00:30:55;;;;;;;;;;;5.20;99.90;;;4.05;100.00;97295.97;5024188;28;1707;-73
2023/10/18 00:33:22;;;;;;;;;;;5.20;99.90;;;4.08;100.00;97284.78;5029843;28;1451;-74
2023/10/18 00:35:48;;;;;;;;;;;5.20;99.90;;;4.01;100.00;97280.69;5043682;28;1627;-74
2023/10/18 00:38:19;;;;;;;;;;;5.20;99.90;;;4.03;100.00;97279.75;5047019;28;1898;-73
2023/10/18 00:40:48;;;;;;;;;;;5.20;99.90;;;4.02;100.00;97274.69;5028241;28;1706;-74
2023/10/18 00:43:20;;;;;;;;;;;5.20;99.90;;;3.94;100.00;97273.09;5046898;28;1518;-74
2023/10/18 00:45:50;;;;;;;;;;;5.30;99.90;;;4.03;100.00;97273.78;5027870;28;1434;-74
2023/10/18 00:48:20;;;;;;;;;;;5.20;99.90;;;4.03;100.00;97264.34;5047138;28;1499;-75
2023/10/18 00:50:51;;;;;;;;;;;5.20;99.90;;;4.09;100.00;97273.66;5028119;28;1492;-74
2023/10/18 00:53:23;;;;;;;;;;;5.20;99.90;;;4.05;100.00;97267.72;5027007;28;1672;-74
2023/10/18 00:55:57;;;;;;;;;;;5.20;99.90;;;4.04;100.00;97265.19;5025911;28;1580;-74
2023/10/18 00:58:29;;;;;;;;;;;5.20;99.90;;;4.02;100.00;97261.84;5028691;28;1902;-74
2023/10/18 01:00:58;;;;;;;;;;;5.20;99.90;;;4.06;100.00;97263.44;5028782;28;1635;-74
2023/10/18 01:03:28;;;;;;;;;;;5.20;99.90;;;4.03;100.00;97260.94;5030197;28;1587;-74
2023/10/18 01:06:07;;;;;;;;;;;5.30;99.90;;;4.00;100.00;97256.72;5030004;28;1488;-72
2023/10/18 01:08:37;;;;;;;;;;;5.30;99.90;;;3.98;100.00;97263.63;5026868;28;1628;-73
2023/10/18 01:11:07;;;;;;;;;;;5.20;99.90;;;4.01;100.00;97262.69;5028653;28;2149;-74
2023/10/18 01:13:36;;;;;;;;;;;5.20;99.90;;;4.09;100.00;97260.81;5030451;28;1668;-73
2023/10/18 01:16:38;;;;;;;;;;;5.30;99.90;;;4.03;100.00;97256.66;5026495;28;1487;-74
2023/10/18 01:18:58;;;;;;;;;;;5.30;99.90;;;4.03;100.00;97254.06;5039121;28;1999;-74
2023/10/18 01:21:25;;;;;;;;;;;5.30;99.90;;;4.01;100.00;97257.56;5029716;28;1495;-74
2023/10/18 01:23:55;;;;;;;;;;;5.20;99.90;;;3.99;100.00;97249.88;5040929;28;1613;-74
2023/10/18 01:26:26;;;;;;;;;;;5.20;99.90;;;4.05;100.00;97247.19;5024682;28;1553;-74
2023/10/18 01:28:54;;;;;;;;;;;5.20;99.90;;;3.98;100.00;97249.03;5024959;28;1483;-74
2023/10/18 01:31:22;;;;;;;;;;;5.20;99.90;;;4.02;100.00;97252.41;5025066;28;1642;-74
2023/10/18 01:33:51;;;;;;;;;;;5.20;99.90;;;4.00;100.00;97253.31;5024789;28;1661;-74
2023/10/18 01:36:20;;;;;;;;;;;5.20;99.90;;;3.98;100.00;97241.34;5027421;28;1506;-74
2023/10/18 01:38:51;;;;;;;;;;;5.20;99.90;;;3.97;100.00;97237.09;5030601;28;1906;-74
2023/10/18 01:41:26;;;;;;;;;;;5.20;99.90;;;4.03;100.00;97230.97;5027270;28;1517;-74
2023/10/18 01:44:07;;;;;;;;;;;5.20;99.90;;;3.87;100.00;97239.88;5027758;28;1723;-74
2023/10/18 01:46:52;;;;;;;;;;;5.20;99.90;;;3.88;100.00;97237.28;5028059;28;1722;-74
2023/10/18 01:49:21;;;;;;;;;;;5.10;99.90;;;3.68;100.00;97237.72;5031358;28;1533;-74
2023/10/18 01:51:53;;;;;;;;;;;5.10;99.90;;;3.62;100.00;97234.41;5046182;28;1610;-74
2023/10/18 01:54:24;;;;;;;;;;;5.00;99.90;;;3.44;100.00;97225.38;5042481;28;1552;-73
2023/10/18 01:56:57;;;;;;;;;;;4.90;99.90;;;3.45;100.00;97232.19;5025154;28;1907;-74
2023/10/18 01:59:27;;;;;;;;;;;4.80;99.90;;;3.51;100.00;97222.66;5043130;28;1566;-74
2023/10/18 02:01:59;;;;;;;;;;;4.80;99.90;;;3.45;100.00;97217.66;5009467;28;1519;-73
2023/10/18 02:04:26;;;;;;;;;;;4.80;99.90;;;3.42;100.00;97211.72;5040607;28;1563;-74
2023/10/18 02:07:17;;;;;;;;;;;4.80;99.90;;;3.52;100.00;97214.06;5029284;28;1587;-74
2023/10/18 02:09:48;;;;;;;;;;;4.80;99.90;;;3.56;100.00;97202.03;5039036;28;1538;-73
2023/10/18 02:12:20;;;;;;;;;;;4.80;99.90;;;3.70;100.00;97199.19;5032145;28;1541;-74
2023/10/18 02:14:51;;;;;;;;;;;4.90;99.90;;;3.66;100.00;97192.41;5028208;28;1600;-73
2023/10/18 02:17:18;;;;;;;;;;;4.90;99.90;;;3.65;100.00;97183.88;5025657;28;1906;-73
2023/10/18 02:19:47;;;;;;;;;;;4.90;99.90;;;3.68;100.00;97193.22;5040284;28;1514;-72
2023/10/18 02:22:16;;;;;;;;;;;4.90;99.90;;;3.69;100.00;97192.34;5042526;28;1510;-74
2023/10/18 02:24:43;;;;;;;;;;;4.90;99.90;;;3.66;100.00;97192.41;5025684;28;1384;-74
2023/10/18 02:27:19;;;;;;;;;;;4.90;99.90;;;3.71;100.00;97188.03;5008841;28;1551;-75
2023/10/18 02:29:47;;;;;;;;;;;4.90;99.90;;;3.69;100.00;97185.47;5040780;28;1570;-73
2023/10/18 02:35:11;;;;;;;;;;;4.90;99.90;;;3.68;100.00;97181.25;5022133;28;1505;-73
2023/10/18 02:37:38;;;;;;;;;;;4.90;99.90;;;3.72;100.00;97174.31;5009453;28;1904;-74
2023/10/18 02:40:08;;;;;;;;;;;4.90;99.90;;;3.70;100.00;97166.66;5041629;28;1806;-74
2023/10/18 02:42:36;;;;;;;;;;;4.90;99.90;;;3.64;100.00;97164.22;5042536;28;1774;-73
2023/10/18 02:45:22;;;;;;;;;;;4.90;99.90;;;3.63;100.00;97166.84;5024490;28;1428;-73
2023/10/18 02:47:51;;;;;;;;;;;4.80;99.90;;;3.70;100.00;97168.38;5033785;28;1216;-74
2023/10/18 02:50:21;;;;;;;;;;;4.90;99.90;;;3.76;100.00;97166.53;5049648;28;1401;-74
2023/10/18 02:52:48;;;;;;;;;;;4.90;99.90;;;3.70;100.00;97164.09;5029969;28;1539;-74
2023/10/18 02:55:19;;;;;;;;;;;4.90;99.90;;;3.74;100.00;97170.84;5047772;28;1532;-74
2023/10/18 02:57:47;;;;;;;;;;;4.90;99.90;;;3.73;100.00;97168.31;5045170;28;1918;-74
2023/10/18 03:00:18;;;;;;;;;;;4.90;99.90;;;3.70;100.00;97158.94;5027727;28;1448;-75
2023/10/18 03:02:45;;;;;;;;;;;4.90;99.90;;;3.67;100.00;97160.72;5034991;28;1284;-74
2023/10/18 03:05:12;;;;;;;;;;;4.90;99.90;;;3.71;100.00;97158.06;5029936;28;1872;-74
2023/10/18 03:07:41;;;;;;;;;;;4.90;99.90;;;3.70;100.00;97152.97;5043869;28;1570;-75
2023/10/18 03:10:11;;;;;;;;;;;4.90;99.90;;;3.67;100.00;97146.19;5043723;28;1518;-71
2023/10/18 03:12:38;;;;;;;;;;;4.90;99.90;;;3.66;100.00;97149.63;5048297;28;1511;-74
2023/10/18 03:15:09;;;;;;;;;;;4.90;99.90;;;3.66;100.00;97141.09;5031401;28;1624;-73
2023/10/18 03:17:36;;;;;;;;;;;4.90;99.90;;;3.60;100.00;97136.06;5046665;28;1898;-74
2023/10/18 03:20:23;;;;;;;;;;;4.90;99.90;;;3.58;100.00;97133.56;5027645;28;1172;-75
2023/10/18 03:22:51;;;;;;;;;;;4.80;99.90;;;3.62;100.00;97131.75;5029904;28;1505;-73
2023/10/18 03:25:27;;;;;;;;;;;4.90;99.90;;;3.67;100.00;97130.78;5010514;28;1623;-74
2023/10/18 03:27:58;;;;;;;;;;;4.90;99.90;;;3.71;100.00;97134.13;5046808;28;1517;-74
2023/10/18 03:30:44;;;;;;;;;;;4.90;99.90;;;3.73;100.00;97125.50;5044283;28;1610;-74
2023/10/18 03:33:13;;;;;;;;;;;4.90;99.90;;;3.60;100.00;97125.81;5029092;28;1413;-75
2023/10/18 03:35:40;;;;;;;;;;;4.80;99.90;;;3.61;100.00;97125.78;5030158;28;1550;-71
2023/10/18 03:38:21;;;;;;;;;;;4.80;99.90;;;3.59;100.00;97121.56;5042445;28;1987;-74
2023/10/18 03:40:56;;;;;;;;;;;4.80;99.90;;;3.60;100.00;97118.94;5040907;28;1591;-74
2023/10/18 03:43:30;;;;;;;;;;;4.80;99.90;;;3.52;100.00;97110.59;5045736;28;1538;-72
2023/10/18 03:46:13;;;;;;;;;;;4.80;99.90;;;3.51;100.00;97112.31;5046607;28;1692;-72
2023/10/18 03:48:44;;;;;;;;;;;4.80;99.90;;;3.53;100.00;97110.53;5030533;28;1241;-74
2023/10/18 03:51:19;;;;;;;;;;;4.80;99.90;;;3.54;100.00;97109.69;5030718;28;1379;-74
2023/10/18 03:53:56;;;;;;;;;;;4.80;99.90;;;3.51;100.00;97109.75;5028042;28;1557;-73
2023/10/18 03:56:23;;;;;;;;;;;4.70;99.90;;;3.49;100.00;97102.94;5032628;28;1577;-74
2023/10/18 03:59:00;;;;;;;;;;;4.70;99.90;;;3.45;100.00;97104.75;5024772;28;1995;-73
2023/10/18 04:01:28;;;;;;;;;;;4.70;99.90;;;3.47;100.00;97099.59;5043698;28;1569;-74
2023/10/18 04:03:56;;;;;;;;;;;4.70;99.90;;;3.45;100.00;97096.22;5029203;28;1592;-73
2023/10/18 04:06:28;;;;;;;;;;;4.70;99.90;;;3.42;100.00;97099.69;5047230;28;1562;-74
2023/10/18 04:09:04;;;;;;;;;;;4.70;99.90;;;3.35;100.00;97087.84;5029454;28;1550;-73
2023/10/18 04:11:33;;;;;;;;;;;4.60;99.90;;;3.43;100.00;97085.97;5042351;28;1561;-75
2023/10/18 04:14:00;;;;;;;;;;;4.50;99.90;;;3.43;100.00;97083.41;5011574;28;1193;-73
2023/10/18 04:16:30;;;;;;;;;;;4.60;99.90;;;3.46;100.00;97080.78;5029597;28;1616;-74
2023/10/18 04:18:58;;;;;;;;;;;4.60;99.90;;;3.48;100.00;97073.03;5045248;28;1973;-73
2023/10/18 04:21:28;;;;;;;;;;;4.60;99.90;;;3.44;100.00;97067.13;5042717;28;1538;-73
2023/10/18 04:23:58;;;;;;;;;;;4.60;99.90;;;3.41;100.00;97069.78;5026331;28;1571;-73
2023/10/18 04:26:26;;;;;;;;;;;4.60;99.90;;;3.41;100.00;97059.50;5042956;28;1570;-73
2023/10/18 04:29:04;;;;;;;;;;;4.60;99.90;;;3.38;100.00;97058.75;5030341;28;1219;-74
2023/10/18 04:31:32;;;;;;;;;;;4.50;99.90;;;3.37;100.00;97054.47;5041385;28;1808;-72
2023/10/18 04:33:59;;;;;;;;;;;4.50;99.90;;;3.26;100.00;97057.28;5029580;28;1514;-74
2023/10/18 04:36:27;;;;;;;;;;;4.50;99.90;;;3.37;100.00;97057.03;5028499;28;1549;-73
2023/10/18 04:38:57;;;;;;;;;;;4.60;99.90;;;3.40;100.00;97056.97;5032242;28;1906;-73
2023/10/18 04:41:25;;;;;;;;;;;4.60;99.90;;;3.34;100.00;97047.69;5022980;28;1648;-74
2023/10/18 04:44:18;;;;;;;;;;;4.60;99.90;;;3.26;100.00;97041.88;5024715;28;1507;-73
2023/10/18 04:46:47;;;;;;;;;;;4.50;99.90;;;3.20;100.00;97039.47;5030909;28;1655;-74
2023/10/18 04:54:11;;;;;;;;;;;4.50;99.90;;;3.16;100.00;97028.44;5025701;28;2098;-73
2023/10/18 04:56:38;;;;;;;;;;;4.40;99.90;;;3.23;100.00;97019.72;5030891;28;1678;-74
2023/10/18 04:59:11;;;;;;;;;;;4.40;99.90;;;3.22;100.00;97007.78;5037179;28;1886;-73
2023/10/18 05:04:28;;;;;;;;;;;4.40;99.90;;;3.24;100.00;96998.34;5044447;28;1495;-73
2023/10/18 05:07:00;;;;;;;;;;;4.40;99.90;;;3.29;100.00;96998.22;5027423;28;1494;-73
2023/10/18 05:09:34;;;;;;;;;;;4.40;99.90;;;3.25;100.00;96992.31;5042056;28;1523;-73
2023/10/18 05:14:50;;;;;;;;;;;4.40;99.90;;;3.31;100.00;96993.91;5032549;28;1241;-73
2023/10/18 05:17:23;;;;;;;;;;;4.40;99.90;;;3.32;100.00;96991.28;5042170;28;1478;-73
2023/10/18 05:19:51;;;;;;;;;;;4.50;99.90;;;3.41;100.00;96992.81;5016265;28;1975;-73
2023/10/18 05:22:24;;;;;;;;;;;4.50;99.90;;;3.45;100.00;96991.88;5026166;28;1602;-74
2023/10/18 05:25:15;;;;;;;;;;;4.60;99.90;;;3.38;100.00;96992.88;5027241;28;1780;-74
2023/10/18 05:27:46;;;;;;;;;;;4.50;99.90;;;3.33;100.00;96984.44;5012559;28;1535;-74
2023/10/18 05:30:16;;;;;;;;;;;4.50;99.90;;;3.35;100.00;96977.53;5024613;28;1633;-73
2023/10/18 05:32:54;;;;;;;;;;;4.50;99.90;;;3.40;100.00;96990.28;5029277;28;1616;-74
2023/10/18 05:35:24;;;;;;;;;;;4.50;99.90;;;3.40;100.00;96986.00;5045368;28;1483;-74
2023/10/18 05:37:50;;;;;;;;;;;4.50;99.90;;;3.38;100.00;96985.19;5042501;28;1910;-74
2023/10/18 05:45:59;;;;;;;;;;;4.50;99.90;;;3.34;100.00;96983.56;5040451;28;1665;-74
2023/10/18 05:48:31;;;;;;;;;;;4.50;99.90;;;3.36;100.00;96979.25;5025477;28;1494;-74
2023/10/18 05:54:04;;;;;;;;;;;4.50;99.90;;;3.37;100.00;96969.81;5041961;28;1565;-75
2023/10/18 05:56:32;;;;;;;;;;;4.50;99.90;;;3.43;100.00;96974.81;5042585;28;1553;-74
2023/10/18 05:59:27;;;;;;;;;;;4.50;99.90;;;3.45;100.00;96968.78;5026327;28;1906;-73
2023/10/18 06:02:01;;;;;;;;;;;4.60;99.90;;;3.47;100.00;96964.44;5032478;28;1542;-74
2023/10/18 06:04:37;;;;;;;;;;;4.70;99.90;;;3.49;100.00;96966.97;5025025;28;1642;-74
2023/10/18 06:07:12;;;;;;;;;;;4.70;99.90;;;3.54;100.00;96965.16;5025699;28;1628;-73
2023/10/18 06:09:46;;;;;;;;;;;4.70;99.90;;;3.66;100.00;96971.69;5012084;28;1527;-74
2023/10/18 06:12:15;;;;;;;;;;;4.70;99.90;;;3.72;100.00;96976.69;5025481;28;1550;-74
2023/10/18 06:14:45;;;;;;;;;;;4.80;99.90;;;3.70;100.00;96973.31;5024565;28;1629;-74
2023/10/18 06:17:12;;;;;;;;;;;4.80;99.90;;;3.69;100.00;96974.19;5008515;28;1613;-75
2023/10/18 06:19:42;;;;;;;;;;;4.80;99.90;;;3.75;100.00;96969.72;5024751;28;2001;-75
2023/10/18 06:22:16;;;;;;;;;;;4.80;99.90;;;3.86;100.00;96973.75;5028985;28;1537;-73
2023/10/18 06:24:48;;;;;;;;;;;4.90;99.90;;;3.95;100.00;96978.66;5046120;28;1524;-74
2023/10/18 06:27:16;;;;;;;;;;;4.90;99.90;;;3.96;100.00;96975.19;5026557;28;1510;-74
2023/10/18 06:29:49;;;;;;;;;;;5.00;99.90;;;4.06;100.00;96980.94;5031531;28;1451;-74
2023/10/18 06:32:16;;;;;;;;;;;5.00;99.90;;;4.05;100.00;96981.81;5030574;28;1580;-74
2023/10/18 06:34:43;;;;;;;;;;;5.10;99.90;;;4.00;100.00;96978.53;5046251;28;1566;-74
2023/10/18 06:37:20;;;;;;;;;;;5.10;99.90;;;4.02;100.00;96982.75;5042132;28;1597;-73
2023/10/18 06:39:51;;;;;;;;;;;5.10;99.90;;;3.93;100.00;96967.59;5045112;28;1985;-75
2023/10/18 06:42:18;;;;;;;;;;;5.10;99.90;;;3.98;100.00;96971.72;5047843;28;1806;-74
2023/10/18 06:44:46;;;;;;;;;;;5.10;99.90;;;4.01;100.00;96964.81;5047231;28;1131;-74
2023/10/18 06:47:13;;;;;;;;;;;5.20;99.90;;;4.03;100.00;96963.88;5046317;28;1539;-74
2023/10/18 06:49:43;;;;;;;;;;;5.20;99.90;;;4.14;100.00;96961.88;5034108;28;1103;-75
2023/10/18 06:52:14;;;;;;;;;;;5.20;99.90;;;4.22;100.00;96961.69;5016468;28;1802;-74
2023/10/18 06:54:45;;;;;;;;;;;5.20;99.90;;;4.33;100.00;96963.94;5043495;28;1127;-74
2023/10/18 06:57:15;;;;;;;;;;;5.30;99.90;;;4.30;100.00;96964.88;5046501;28;1659;-74
2023/10/18 06:59:48;;;;;;;;;;;5.30;99.90;;;4.47;100.00;96966.13;5032694;28;1984;-74
2023/10/18 07:02:17;;;;;;;;;;;5.40;99.90;;;4.38;100.00;96968.09;5044229;28;1670;-75
2023/10/18 07:04:51;;;;;;;;;;;5.40;99.90;;;4.51;100.00;96967.72;5046418;28;1562;-74
2023/10/18 07:07:20;;;;;;;;;;;5.50;99.90;;;4.65;100.00;96963.03;5036035;28;1672;-74
2023/10/18 07:09:52;;;;;;;;;;;5.50;99.90;;;4.62;100.00;96957.97;5028444;28;1629;-74
2023/10/18 07:12:26;;;;;;;;;;;5.60;99.90;;;4.69;100.00;96963.78;5029368;28;1446;-74
2023/10/18 07:14:56;;;;;;;;;;;5.70;99.90;;;4.83;100.00;96961.66;5044492;28;1450;-74
2023/10/18 07:17:24;;;;;;;;;;;5.80;99.90;;;4.84;100.00;96947.91;5027593;28;1982;-74
2023/10/18 07:19:55;;;;;;;;;;;5.90;99.90;;;4.88;100.00;96943.50;5025366;28;1910;-74
2023/10/18 07:25:08;;;;;;;;;;;6.00;99.90;;;5.12;100.00;96941.94;5032021;28;1373;-74
2023/10/18 07:27:36;;;;;;;;;;;6.00;99.90;;;5.16;100.00;96935.81;5043583;28;1337;-74
2023/10/18 07:30:13;;;;;;;;;;;6.10;99.90;;;5.32;100.00;96938.75;5014541;28;1435;-74
2023/10/18 07:32:42;;;;;;;;;;;6.20;99.90;;;5.39;100.00;96943.63;5044960;28;1392;-72
2023/10/18 07:35:11;;;;;;;;;;;6.30;99.90;;;5.39;100.00;96929.94;5031388;28;1055;-75
2023/10/18 07:37:43;;;;;;;;;;;6.40;99.90;;;5.52;100.00;96920.91;5030930;28;1741;-74
2023/10/18 07:40:11;;;;;;;;;;;6.60;99.90;;;5.74;100.00;96923.59;5025937;28;1910;-74
2023/10/18 07:42:43;;;;;;;;;;;6.80;99.90;;;5.93;100.00;96918.69;5019819;28;1714;-74
2023/10/18 07:45:17;;;;;;;;;;;7.00;99.90;;;5.85;100.00;96916.34;5022009;28;1440;-74
2023/10/18 07:47:43;;;;;;;;;;;6.90;99.90;;;6.13;100.00;96922.31;5036955;28;1090;-73
2023/10/18 07:53:13;;;;;;;;;;;7.30;99.90;;;6.46;100.00;96915.13;5000668;28;1452;-71
2023/10/18 07:55:43;;;;;;;;;;;7.40;99.90;;;6.76;100.00;96909.72;4991449;28;1050;-71
2023/10/18 07:58:22;;;;;;;;;;;7.80;99.90;;;7.40;100.00;96902.00;5005238;28;1376;-72
2023/10/18 08:03:31;;;;;;;;;;;8.90;99.90;;;8.07;100.00;96887.16;5027611;28;1439;-74
2023/10/18 08:05:59;;;;;;;;;;;9.30;99.90;;;7.85;100.00;96890.66;5025509;28;1431;-74
2023/10/18 08:08:26;;;;;;;;;;;9.10;99.90;;;7.29;100.00;96893.84;5030041;28;1378;-74
2023/10/18 08:10:54;;;;;;;;;;;8.80;99.90;;;7.29;100.00;96896.44;5046399;28;1299;-72
2023/10/18 08:13:31;;;;;;;;;;;8.60;99.90;;;7.03;100.00;96895.75;5014769;28;1410;-75
2023/10/18 08:16:01;;;;;;;;;;;8.50;99.90;;;7.39;100.00;96892.59;5039073;28;1991;-74
2023/10/18 08:18:43;;;;;;;;;;;8.50;99.90;;;7.32;100.00;96879.09;5041920;28;1149;-74
2023/10/18 08:21:36;;;;;;;;;;;8.40;99.90;;;7.31;100.00;96887.72;5045660;28;1363;-74
2023/10/18 08:24:08;;;;;;;;;;;8.40;99.90;;;7.61;100.00;96882.19;5031516;28;1396;-74
2023/10/18 08:26:48;;;;;;;;;;;8.60;99.90;;;7.90;100.00;96877.56;5014726;28;1427;-74
2023/10/18 08:29:16;;;;;;;;;;;8.60;99.90;;;7.57;100.00;96874.66;5018500;28;1763;-74
2023/10/18 08:31:55;;;;;;;;;;;8.70;99.90;;;7.85;100.00;96871.75;5026532;28;1423;-75
2023/10/18 08:34:25;;;;;;;;;;;8.80;99.90;;;8.00;100.00;96870.22;5038878;28;1496;-74
2023/10/18 08:37:01;;;;;;;;;;;9.00;99.90;;;7.63;100.00;96871.81;5028918;28;1667;-75
2023/10/18 08:39:28;;;;;;;;;;;9.10;99.90;;;7.47;100.00;96869.88;5024555;28;1902;-75
2023/10/18 08:42:08;;;;;;;;;;;9.10;99.90;;;7.71;100.00;96860.25;5029811;28;1440;-74
2023/10/18 08:44:37;;;;;;;;;;;9.10;99.90;;;8.00;100.00;96852.97;5028254;28;1443;-74
2023/10/18 08:49:44;;;;;;;;;;;9.10;99.90;;;8.10;100.00;96820.66;5029398;28;1581;-74
2023/10/18 08:52:11;;;;;;;;;;;9.10;99.90;;;8.15;100.00;96821.28;5026140;28;1277;-74
2023/10/18 08:54:42;;;;;;;;;;;9.20;99.90;;;8.10;100.00;96827.59;5045855;28;1410;-75
2023/10/18 08:57:15;;;;;;;;;;;9.10;99.90;;;8.35;100.00;96825.56;5027661;28;1368;-74
2023/10/18 08:59:50;;;;;;;;;;;9.30;99.90;;;8.34;100.00;96830.78;5029257;28;1967;-74
2023/10/18 09:02:19;;;;;;;;;;;9.30;99.90;;;8.36;100.00;96832.41;5045210;28;1512;-74
2023/10/18 09:04:47;;;;;;;;;;;9.40;99.90;;;8.55;100.00;96840.19;5025354;28;1407;-74
2023/10/18 09:07:23;;;;;;;;;;;9.40;99.90;;;8.85;100.00;96839.69;5040973;28;1398;-74
2023/10/18 09:09:57;;;;;;;;;;;9.60;99.90;;;8.94;100.00;96831.47;5029100;28;1430;-75
2023/10/18 09:15:28;;;;;;;;;;;9.80;99.90;;;9.15;100.00;96832.19;5016227;28;1479;-74
2023/10/18 09:17:56;;;;;;;;;;;9.90;99.90;;;9.32;100.00;96833.91;5011185;28;1417;-74
2023/10/18 09:20:27;;;;;;;;;;;10.00;99.90;;;9.16;100.00;96830.41;5027087;28;1922;-74
2023/10/18 09:22:54;;;;;;;;;;;10.10;99.90;;;9.28;100.00;96816.84;5027563;28;1647;-74
2023/10/18 09:25:24;;;;;;;;;;;10.10;99.90;;;9.47;100.00;96816.78;5025672;28;1416;-73
2023/10/18 09:27:52;;;;;;;;;;;10.10;99.90;;;9.38;100.00;96807.72;5020692;28;1460;-73
2023/10/18 09:30:19;;;;;;;;;;;10.20;99.90;;;9.09;100.00;96803.97;5020963;28;1537;-72
2023/10/18 09:32:46;;;;;;;;;;;10.20;99.90;;;9.29;100.00;96786.63;5030041;28;1326;-74
2023/10/18 09:35:15;;;;;;;;;;;10.20;99.90;;;9.86;100.00;96794.94;5025001;28;1396;-74
2023/10/18 09:37:45;;;;;;;;;;;10.20;99.90;;;9.91;100.00;96799.88;5009209;28;1749;-74
2023/10/18 09:40:12;;;;;;;;;;;10.60;99.90;;;9.88;100.00;96798.28;5045521;28;1979;-75
2023/10/18 09:42:39;;;;;;;;;;;10.70;99.90;;;9.89;100.00;96784.41;5044894;28;1539;-74
2023/10/18 09:45:08;;;;;;;;;;;10.90;99.90;;;10.09;100.00;96777.34;5042492;28;1448;-75
2023/10/18 09:47:36;;;;;;;;;;;10.80;99.90;;;10.30;100.00;96781.38;5025826;28;1723;-74
2023/10/18 09:50:08;;;;;;;;;;;11.00;99.90;;;10.13;100.00;96778.84;5026725;28;1380;-75
2023/10/18 09:52:47;;;;;;;;;;;11.00;99.90;;;10.14;100.00;96775.31;5027584;28;1462;-74
2023/10/18 09:55:18;;;;;;;;;;;11.00;99.90;;;10.12;100.00;96774.56;5009133;28;1551;-74
2023/10/18 09:57:59;;;;;;;;;;;11.00;99.90;;;10.42;100.00;96775.53;5019911;28;1574;-74
2023/10/18 10:00:29;;;;;;;;;;;11.10;99.90;;;10.16;100.00;96769.13;5023812;28;1969;-73
2023/10/18 10:02:57;;;;;;;;;;;11.20;99.90;;;10.15;100.00;96766.63;5028288;28;1414;-74
2023/10/18 10:05:24;;;;;;;;;;;11.10;99.90;;;10.45;100.00;96772.78;5010648;28;1410;-72
2023/10/18 10:07:56;;;;;;;;;;;11.10;99.90;;;10.15;100.00;96770.06;5037083;28;1363;-74
2023/10/18 10:10:24;;;;;;;;;;;11.00;99.90;;;10.19;100.00;96773.31;5026430;28;1388;-74
2023/10/18 10:12:57;;;;;;;;;;;11.00;99.90;;;10.07;100.00;96769.63;5026231;28;1494;-75
2023/10/18 10:15:28;;;;;;;;;;;11.00;99.90;;;10.35;100.00;96771.59;5026316;28;1490;-72
2023/10/18 10:18:00;;;;;;;;;;;11.10;99.90;;;10.38;100.00;96757.63;5025451;28;1701;-74
2023/10/18 10:20:31;;;;;;;;;;;11.20;99.90;;;10.58;100.00;96753.91;5028242;28;2031;-74
2023/10/18 10:23:02;;;;;;;;;;;11.20;99.90;;;10.72;100.00;96756.59;5026754;28;1565;-73
2023/10/18 10:25:32;;;;;;;;;;;11.40;99.90;;;10.85;100.00;96747.16;5026747;28;1880;-74
2023/10/18 10:31:54;;;;;;;;;;;11.60;99.90;;;10.63;100.00;96741.53;5013458;28;1804;-74
2023/10/18 10:34:32;;;;;;;;;;;11.60;99.90;;;10.54;100.00;96753.28;5044606;28;1748;-74
2023/10/18 10:37:18;;;;;;;;;;;11.50;99.90;;;10.51;100.00;96747.41;5040511;28;1573;-71
2023/10/18 10:39:52;;;;;;;;;;;11.40;99.90;;;10.33;100.00;96729.34;5039082;28;1983;-75
2023/10/18 10:42:41;;;;;;;;;;;11.50;99.90;;;10.30;100.00;96737.28;5026923;28;1653;-73
2023/10/18 10:45:11;;;;;;;;;;;11.40;99.90;;;10.40;100.00;96729.81;5041338;28;1653;-74
2023/10/18 10:47:43;;;;;;;;;;;11.30;99.90;;;10.56;100.00;96722.88;5040182;28;1532;-74
2023/10/18 10:50:11;;;;;;;;;;;11.30;99.90;;;10.50;100.00;96714.59;5024382;28;1556;-74
2023/10/18 10:52:40;;;;;;;;;;;11.30;99.90;;;10.55;100.00;96710.00;5027406;28;1597;-75
2023/10/18 10:55:18;;;;;;;;;;;11.30;99.90;;;10.47;100.00;96713.03;5026231;28;1382;-74
2023/10/18 10:57:46;;;;;;;;;;;11.40;99.90;;;10.55;100.00;96710.00;5027520;28;1477;-74
2023/10/18 11:00:37;;;;;;;;;;;11.40;99.90;;;10.63;100.00;96698.25;5009551;28;1898;-75
2023/10/18 11:03:33;;;;;;;;;;;11.40;99.90;;;10.60;100.00;96697.59;5030648;28;1636;-74
2023/10/18 11:06:05;;;;;;;;;;;11.50;99.90;;;10.77;100.00;96686.25;5038298;28;1440;-71
2023/10/18 11:08:36;;;;;;;;;;;11.50;99.90;;;10.74;100.00;96682.09;5043238;28;1451;-74
2023/10/18 11:11:06;;;;;;;;;;;11.50;99.90;;;10.88;100.00;96681.28;5015045;28;1760;-74
2023/10/18 11:13:36;;;;;;;;;;;11.60;99.90;;;11.07;100.00;96673.25;5030094;28;1505;-74
2023/10/18 11:16:05;;;;;;;;;;;11.60;99.90;;;11.22;100.00;96682.72;5040447;28;1546;-74
2023/10/18 11:18:39;;;;;;;;;;;11.70;99.90;;;11.19;100.00;96675.09;5048991;28;1422;-75
2023/10/18 11:21:18;;;;;;;;;;;11.90;99.90;;;11.35;100.00;96672.41;5041480;28;1946;-74
2023/10/18 11:23:56;;;;;;;;;;;12.00;99.90;;;11.36;100.00;96668.91;5017064;28;1410;-73
2023/10/18 11:26:25;;;;;;;;;;;12.10;99.90;;;11.58;100.00;96665.81;5028409;28;1463;-72
2023/10/18 11:28:56;;;;;;;;;;;12.20;99.90;;;11.97;100.00;96659.13;5037274;28;1612;-73
2023/10/18 11:31:26;;;;;;;;;;;12.40;99.90;;;12.05;100.00;96640.44;5025024;28;1505;-72
2023/10/18 11:34:04;;;;;;;;;;;12.60;99.90;;;11.92;100.00;96630.78;5045363;28;1424;-73
2023/10/18 11:36:33;;;;;;;;;;;12.70;99.90;;;12.69;100.00;96631.06;5041592;28;1409;-73
2023/10/18 11:39:07;;;;;;;;;;;12.90;99.90;;;12.70;100.00;96632.75;5012379;28;1600;-73
2023/10/18 11:41:34;;;;;;;;;;;13.00;99.90;;;12.48;100.00;96624.66;5028606;28;1906;-73
2023/10/18 11:44:06;;;;;;;;;;;13.20;99.90;;;12.49;100.00;96621.13;5030881;28;1417;-72
2023/10/18 11:46:51;;;;;;;;;;;13.30;99.90;;;12.39;100.00;96602.69;5028326;28;1698;-73
2023/10/18 11:49:19;;;;;;;;;;;13.20;99.90;;;12.67;100.00;96606.88;5012318;28;1398;-72
2023/10/18 11:51:48;;;;;;;;;;;13.20;99.90;;;12.88;100.00;96603.78;5035384;28;1654;-72
2023/10/18 11:54:35;;;;;;;;;;;13.30;99.90;;;12.68;100.00;96602.50;5029878;28;1412;-73
2023/10/18 11:57:06;;;;;;;;;;;13.40;99.90;;;12.31;100.00;96594.53;5030030;28;1396;-72
2023/10/18 11:59:50;;;;;;;;;;;13.30;99.90;;;12.11;100.00;96591.47;5032796;28;1983;-72
2023/10/18 12:02:17;;;;;;;;;;;13.20;99.90;;;12.49;100.00;96592.50;5048342;28;1375;-73
2023/10/18 12:04:48;;;;;;;;;;;13.10;99.90;;;12.02;100.00;96597.25;5027936;28;1842;-72
2023/10/18 12:07:15;;;;;;;;;;;13.10;99.90;;;12.17;100.00;96607.59;5045404;28;1508;-73
2023/10/18 12:09:46;;;;;;;;;;;13.00;99.90;;;12.28;100.00;96608.56;5044411;28;1012;-73
2023/10/18 12:12:13;;;;;;;;;;;13.00;99.90;;;12.29;100.00;96607.66;5029121;28;1347;-73
2023/10/18 12:14:42;;;;;;;;;;;13.00;99.90;;;12.60;100.00;96610.84;5031929;28;1379;-73
2023/10/18 12:17:13;;;;;;;;;;;13.00;99.90;;;12.71;100.00;96621.38;5025784;28;1549;-72
2023/10/18 12:19:43;;;;;;;;;;;13.10;99.90;;;12.52;100.00;96624.38;5027661;28;1927;-72
2023/10/18 12:22:10;;;;;;;;;;;13.20;99.90;;;12.67;100.00;96613.88;5048052;28;2064;-73
2023/10/18 12:24:38;;;;;;;;;;;13.30;99.90;;;12.76;100.00;96611.47;5045075;28;1088;-73
2023/10/18 12:29:47;;;;;;;;;;;13.40;99.90;;;12.83;100.00;96596.28;5029766;28;1601;-72
2023/10/18 12:32:26;;;;;;;;;;;13.40;99.90;;;12.49;100.00;96590.72;5046097;28;1405;-73